sensor_id;sensor_type;location;lat;lon;timestamp;pressure;altitude;pressure_sealevel;temperature;humidity
10392;BME280;5242;49.244;6.774;2023-04-08T00:07:03;100011.59;;;3.74;nan
10392;BME280;5242;49.244;6.774;2023-04-08T00:14:55;100016.03;;;3.64;nan
10392;BME280;5242;49.244;6.774;2023-04-08T00:22:48;100018.22;;;3.62;nan
10392;BME280;5242;49.244;6.774;2023-04-08T00:30:40;100012.16;;;3.70;nan
10392;BME280;5242;49.244;6.774;2023-04-08T00:38:31;100021.63;;;3.68;nan
10392;BME280;5242;49.244;6.774;2023-04-08T00:46:23;100021.00;;;3.57;nan
10392;BME280;5242;49.244;6.774;2023-04-08T00:54:17;100016.84;;;3.65;nan
10392;BME280;5242;49.244;6.774;2023-04-08T01:02:23;100027.25;;;3.72;nan
10392;BME280;5242;49.244;6.774;2023-04-08T01:10:21;100028.75;;;3.78;nan
10392;BME280;5242;49.244;6.774;2023-04-08T01:18:14;100031.53;;;3.73;nan
10392;BME280;5242;49.244;6.774;2023-04-08T01:26:10;100033.63;;;3.76;nan
10392;BME280;5242;49.244;6.774;2023-04-08T01:34:04;100028.09;;;4.00;nan
10392;BME280;5242;49.244;6.774;2023-04-08T01:41:57;100031.69;;;3.95;nan
10392;BME280;5242;49.244;6.774;2023-04-08T01:49:50;100025.19;;;3.96;nan
10392;BME280;5242;49.244;6.774;2023-04-08T01:57:47;100018.13;;;4.00;nan
10392;BME280;5242;49.244;6.774;2023-04-08T02:05:39;100028.72;;;4.10;nan
10392;BME280;5242;49.244;6.774;2023-04-08T02:13:31;100031.91;;;4.12;nan
10392;BME280;5242;49.244;6.774;2023-04-08T02:21:31;100036.88;;;4.05;nan
10392;BME280;5242;49.244;6.774;2023-04-08T02:29:25;100039.50;;;4.10;nan
10392;BME280;5242;49.244;6.774;2023-04-08T02:37:20;100030.72;;;4.19;nan
10392;BME280;5242;49.244;6.774;2023-04-08T02:45:12;100036.91;;;4.33;nan
10392;BME280;5242;49.244;6.774;2023-04-08T02:53:04;100035.09;;;4.42;nan
10392;BME280;5242;49.244;6.774;2023-04-08T03:00:56;100037.69;;;4.47;nan
10392;BME280;5242;49.244;6.774;2023-04-08T03:08:48;100043.19;;;4.42;nan
10392;BME280;5242;49.244;6.774;2023-04-08T03:16:40;100030.53;;;4.43;nan
10392;BME280;5242;49.244;6.774;2023-04-08T03:24:32;100041.59;;;4.41;nan
10392;BME280;5242;49.244;6.774;2023-04-08T03:32:24;100033.00;;;4.39;nan
10392;BME280;5242;49.244;6.774;2023-04-08T03:40:16;100039.59;;;4.47;nan
10392;BME280;5242;49.244;6.774;2023-04-08T03:48:08;100032.59;;;4.60;nan
10392;BME280;5242;49.244;6.774;2023-04-08T03:56:00;100045.81;;;4.61;nan
10392;BME280;5242;49.244;6.774;2023-04-08T04:03:53;100041.19;;;4.62;nan
10392;BME280;5242;49.244;6.774;2023-04-08T04:11:45;100040.91;;;4.63;nan
10392;BME280;5242;49.244;6.774;2023-04-08T04:19:37;100047.72;;;4.61;nan
10392;BME280;5242;49.244;6.774;2023-04-08T04:27:29;100057.91;;;4.64;nan
10392;BME280;5242;49.244;6.774;2023-04-08T04:35:21;100060.09;;;4.62;nan
10392;BME280;5242;49.244;6.774;2023-04-08T04:43:12;100054.09;;;4.65;nan
10392;BME280;5242;49.244;6.774;2023-04-08T04:51:04;100058.88;;;4.68;nan
10392;BME280;5242;49.244;6.774;2023-04-08T04:58:58;100067.88;;;4.77;nan
10392;BME280;5242;49.244;6.774;2023-04-08T05:06:49;100070.88;;;4.89;nan
10392;BME280;5242;49.244;6.774;2023-04-08T05:14:41;100075.03;;;4.95;nan
10392;BME280;5242;49.244;6.774;2023-04-08T05:22:34;100075.94;;;5.05;nan
10392;BME280;5242;49.244;6.774;2023-04-08T05:30:27;100079.03;;;5.12;nan
10392;BME280;5242;49.244;6.774;2023-04-08T05:38:19;100084.59;;;5.15;nan
10392;BME280;5242;49.244;6.774;2023-04-08T05:46:11;100087.19;;;5.20;nan
10392;BME280;5242;49.244;6.774;2023-04-08T05:54:03;100101.09;;;5.28;nan
10392;BME280;5242;49.244;6.774;2023-04-08T06:01:55;100103.28;;;5.39;nan
10392;BME280;5242;49.244;6.774;2023-04-08T06:09:47;100111.03;;;5.55;nan
10392;BME280;5242;49.244;6.774;2023-04-08T06:17:39;100114.59;;;5.64;nan
10392;BME280;5242;49.244;6.774;2023-04-08T06:25:31;100117.25;;;5.78;nan
10392;BME280;5242;49.244;6.774;2023-04-08T06:33:23;100123.22;;;5.88;nan
10392;BME280;5242;49.244;6.774;2023-04-08T06:41:15;100123.00;;;5.99;nan
10392;BME280;5242;49.244;6.774;2023-04-08T06:49:07;100129.34;;;6.25;nan
10392;BME280;5242;49.244;6.774;2023-04-08T06:57:00;100123.25;;;6.51;nan
10392;BME280;5242;49.244;6.774;2023-04-08T07:04:52;100125.00;;;6.87;nan
10392;BME280;5242;49.244;6.774;2023-04-08T07:12:44;100139.91;;;7.24;nan
10392;BME280;5242;49.244;6.774;2023-04-08T07:20:36;100145.84;;;7.52;nan
10392;BME280;5242;49.244;6.774;2023-04-08T07:28:29;100144.41;;;7.98;nan
10392;BME280;5242;49.244;6.774;2023-04-08T07:36:21;100149.25;;;8.48;nan
10392;BME280;5242;49.244;6.774;2023-04-08T07:44:12;100150.84;;;8.97;nan
10392;BME280;5242;49.244;6.774;2023-04-08T07:52:07;100157.44;;;9.67;nan
10392;BME280;5242;49.244;6.774;2023-04-08T07:59:59;100156.28;;;10.10;nan
10392;BME280;5242;49.244;6.774;2023-04-08T08:07:51;100171.63;;;10.48;nan
10392;BME280;5242;49.244;6.774;2023-04-08T08:15:43;100162.13;;;10.66;nan
10392;BME280;5242;49.244;6.774;2023-04-08T08:23:35;100168.25;;;10.88;nan
10392;BME280;5242;49.244;6.774;2023-04-08T08:31:28;100164.38;;;11.50;nan
10392;BME280;5242;49.244;6.774;2023-04-08T08:39:20;100171.00;;;12.34;nan
10392;BME280;5242;49.244;6.774;2023-04-08T08:47:12;100187.53;;;13.01;nan
10392;BME280;5242;49.244;6.774;2023-04-08T08:55:04;100184.25;;;13.98;nan
10392;BME280;5242;49.244;6.774;2023-04-08T09:03:21;100175.28;;;14.20;nan
10392;BME280;5242;49.244;6.774;2023-04-08T09:11:20;100170.22;;;15.37;nan
10392;BME280;5242;49.244;6.774;2023-04-08T09:19:14;100174.66;;;15.72;nan
10392;BME280;5242;49.244;6.774;2023-04-08T09:27:06;100187.63;;;14.10;nan
10392;BME280;5242;49.244;6.774;2023-04-08T09:34:58;100184.84;;;13.52;nan
10392;BME280;5242;49.244;6.774;2023-04-08T09:42:51;100177.50;;;15.53;nan
10392;BME280;5242;49.244;6.774;2023-04-08T09:50:49;100182.22;;;18.37;nan
10392;BME280;5242;49.244;6.774;2023-04-08T09:58:54;100177.66;;;16.68;nan
10392;BME280;5242;49.244;6.774;2023-04-08T10:06:57;100182.31;;;18.80;nan
10392;BME280;5242;49.244;6.774;2023-04-08T10:15:20;100180.69;;;18.72;nan
10392;BME280;5242;49.244;6.774;2023-04-08T10:23:15;100179.16;;;16.59;nan
10392;BME280;5242;49.244;6.774;2023-04-08T10:31:20;100167.03;;;20.77;nan
10392;BME280;5242;49.244;6.774;2023-04-08T10:39:13;100167.66;;;20.99;nan
10392;BME280;5242;49.244;6.774;2023-04-08T10:47:06;100152.56;;;20.58;nan
10392;BME280;5242;49.244;6.774;2023-04-08T10:54:58;100144.63;;;22.90;nan
10392;BME280;5242;49.244;6.774;2023-04-08T11:02:53;100141.88;;;23.13;nan
10392;BME280;5242;49.244;6.774;2023-04-08T11:10:45;100141.66;;;21.27;nan
10392;BME280;5242;49.244;6.774;2023-04-08T11:18:39;100144.56;;;20.01;nan
10392;BME280;5242;49.244;6.774;2023-04-08T11:26:32;100147.19;;;18.70;nan
10392;BME280;5242;49.244;6.774;2023-04-08T11:34:25;100136.22;;;17.50;nan
10392;BME280;5242;49.244;6.774;2023-04-08T11:42:29;100125.53;;;19.01;nan
10392;BME280;5242;49.244;6.774;2023-04-08T11:50:23;100119.84;;;19.72;nan
10392;BME280;5242;49.244;6.774;2023-04-08T11:58:16;100115.91;;;19.66;nan
10392;BME280;5242;49.244;6.774;2023-04-08T12:06:08;100106.13;;;23.55;nan
10392;BME280;5242;49.244;6.774;2023-04-08T12:14:00;100096.59;;;25.53;nan
10392;BME280;5242;49.244;6.774;2023-04-08T12:21:52;100116.63;;;21.72;nan
10392;BME280;5242;49.244;6.774;2023-04-08T12:29:44;100121.56;;;18.44;nan
10392;BME280;5242;49.244;6.774;2023-04-08T12:37:36;100122.06;;;16.45;nan
10392;BME280;5242;49.244;6.774;2023-04-08T12:45:28;100116.19;;;15.72;nan
10392;BME280;5242;49.244;6.774;2023-04-08T12:53:20;100125.16;;;15.38;nan
10392;BME280;5242;49.244;6.774;2023-04-08T13:01:12;100129.41;;;15.36;nan
10392;BME280;5242;49.244;6.774;2023-04-08T13:09:04;100123.38;;;15.23;nan
10392;BME280;5242;49.244;6.774;2023-04-08T13:16:56;100120.13;;;15.14;nan
10392;BME280;5242;49.244;6.774;2023-04-08T13:24:48;100120.19;;;15.21;nan
10392;BME280;5242;49.244;6.774;2023-04-08T13:32:40;100120.75;;;15.34;nan
10392;BME280;5242;49.244;6.774;2023-04-08T13:40:32;100114.09;;;15.05;nan
10392;BME280;5242;49.244;6.774;2023-04-08T13:48:24;100112.75;;;14.68;nan
10392;BME280;5242;49.244;6.774;2023-04-08T13:56:16;100109.91;;;14.42;nan
10392;BME280;5242;49.244;6.774;2023-04-08T14:04:08;100111.19;;;14.25;nan
10392;BME280;5242;49.244;6.774;2023-04-08T14:12:00;100110.16;;;14.10;nan
10392;BME280;5242;49.244;6.774;2023-04-08T14:19:51;100109.06;;;13.95;nan
10392;BME280;5242;49.244;6.774;2023-04-08T14:27:43;100102.28;;;14.08;nan
10392;BME280;5242;49.244;6.774;2023-04-08T14:35:48;100109.00;;;14.34;nan
10392;BME280;5242;49.244;6.774;2023-04-08T14:43:40;100103.16;;;14.12;nan
10392;BME280;5242;49.244;6.774;2023-04-08T14:51:32;100096.16;;;14.15;nan
10392;BME280;5242;49.244;6.774;2023-04-08T14:59:24;100099.25;;;14.13;nan
10392;BME280;5242;49.244;6.774;2023-04-08T15:07:15;100098.47;;;14.36;nan
10392;BME280;5242;49.244;6.774;2023-04-08T15:15:08;100105.59;;;14.41;nan
10392;BME280;5242;49.244;6.774;2023-04-08T15:23:00;100106.50;;;14.68;nan
10392;BME280;5242;49.244;6.774;2023-04-08T15:30:53;100110.13;;;14.52;nan
10392;BME280;5242;49.244;6.774;2023-04-08T15:38:45;100115.56;;;14.06;nan
10392;BME280;5242;49.244;6.774;2023-04-08T15:46:37;100111.38;;;13.93;nan
10392;BME280;5242;49.244;6.774;2023-04-08T15:54:29;100122.03;;;14.18;nan
10392;BME280;5242;49.244;6.774;2023-04-08T16:02:22;100115.56;;;14.06;nan
10392;BME280;5242;49.244;6.774;2023-04-08T16:10:14;100129.19;;;14.03;nan
10392;BME280;5242;49.244;6.774;2023-04-08T16:18:06;100134.75;;;13.87;nan
10392;BME280;5242;49.244;6.774;2023-04-08T16:25:59;100145.69;;;13.87;nan
10392;BME280;5242;49.244;6.774;2023-04-08T16:33:51;100141.72;;;13.84;nan
10392;BME280;5242;49.244;6.774;2023-04-08T16:41:43;100151.03;;;13.80;nan
10392;BME280;5242;49.244;6.774;2023-04-08T16:49:35;100151.44;;;13.62;nan
10392;BME280;5242;49.244;6.774;2023-04-08T16:57:27;100154.06;;;13.39;nan
10392;BME280;5242;49.244;6.774;2023-04-08T17:05:20;100157.09;;;13.18;nan
10392;BME280;5242;49.244;6.774;2023-04-08T17:13:12;100160.56;;;12.99;nan
10392;BME280;5242;49.244;6.774;2023-04-08T17:21:05;100165.34;;;12.87;nan
10392;BME280;5242;49.244;6.774;2023-04-08T17:28:57;100168.69;;;12.80;nan
10392;BME280;5242;49.244;6.774;2023-04-08T17:36:49;100163.41;;;12.71;nan
10392;BME280;5242;49.244;6.774;2023-04-08T17:44:41;100163.22;;;12.64;nan
10392;BME280;5242;49.244;6.774;2023-04-08T17:52:35;100164.25;;;12.59;nan
10392;BME280;5242;49.244;6.774;2023-04-08T18:00:27;100175.81;;;12.53;nan
10392;BME280;5242;49.244;6.774;2023-04-08T18:08:20;100176.75;;;12.45;nan
10392;BME280;5242;49.244;6.774;2023-04-08T18:16:16;100188.81;;;12.28;nan
10392;BME280;5242;49.244;6.774;2023-04-08T18:24:08;100182.84;;;12.10;nan
10392;BME280;5242;49.244;6.774;2023-04-08T18:32:00;100201.91;;;11.94;nan
10392;BME280;5242;49.244;6.774;2023-04-08T18:39:52;100207.72;;;11.80;nan
10392;BME280;5242;49.244;6.774;2023-04-08T18:47:44;100225.72;;;11.69;nan
10392;BME280;5242;49.244;6.774;2023-04-08T18:55:36;100239.13;;;11.62;nan
10392;BME280;5242;49.244;6.774;2023-04-08T19:03:29;100243.91;;;11.52;nan
10392;BME280;5242;49.244;6.774;2023-04-08T19:11:21;100248.78;;;11.47;nan
10392;BME280;5242;49.244;6.774;2023-04-08T19:19:17;100250.28;;;11.44;nan
10392;BME280;5242;49.244;6.774;2023-04-08T19:27:08;100250.88;;;11.38;nan
10392;BME280;5242;49.244;6.774;2023-04-08T19:35:01;100262.31;;;11.31;nan
10392;BME280;5242;49.244;6.774;2023-04-08T19:42:53;100272.09;;;11.20;nan
10392;BME280;5242;49.244;6.774;2023-04-08T19:50:45;100275.38;;;11.13;nan
10392;BME280;5242;49.244;6.774;2023-04-08T19:58:37;100280.94;;;11.04;nan
10392;BME280;5242;49.244;6.774;2023-04-08T20:06:29;100294.78;;;10.99;nan
10392;BME280;5242;49.244;6.774;2023-04-08T20:14:21;100295.06;;;10.85;nan
10392;BME280;5242;49.244;6.774;2023-04-08T20:22:13;100302.78;;;10.71;nan
10392;BME280;5242;49.244;6.774;2023-04-08T20:30:05;100304.38;;;10.51;nan
10392;BME280;5242;49.244;6.774;2023-04-08T20:37:57;100302.47;;;10.31;nan
10392;BME280;5242;49.244;6.774;2023-04-08T20:45:49;100300.97;;;10.12;nan
10392;BME280;5242;49.244;6.774;2023-04-08T20:53:41;100298.59;;;9.90;nan
10392;BME280;5242;49.244;6.774;2023-04-08T21:01:35;100306.25;;;9.67;nan
10392;BME280;5242;49.244;6.774;2023-04-08T21:09:27;100307.00;;;9.38;nan
10392;BME280;5242;49.244;6.774;2023-04-08T21:17:19;100303.06;;;9.18;nan
10392;BME280;5242;49.244;6.774;2023-04-08T21:25:10;100303.63;;;8.93;nan
10392;BME280;5242;49.244;6.774;2023-04-08T21:33:02;100299.69;;;8.65;nan
10392;BME280;5242;49.244;6.774;2023-04-08T21:40:54;100305.09;;;8.30;nan
10392;BME280;5242;49.244;6.774;2023-04-08T21:48:46;100302.22;;;8.00;nan
10392;BME280;5242;49.244;6.774;2023-04-08T21:56:38;100314.28;;;7.77;nan
10392;BME280;5242;49.244;6.774;2023-04-08T22:04:30;100309.78;;;7.63;nan
10392;BME280;5242;49.244;6.774;2023-04-08T22:12:22;100300.03;;;7.54;nan
10392;BME280;5242;49.244;6.774;2023-04-08T22:20:14;100304.16;;;7.51;nan
10392;BME280;5242;49.244;6.774;2023-04-08T22:28:05;100304.00;;;7.56;nan
10392;BME280;5242;49.244;6.774;2023-04-08T22:35:58;100303.13;;;7.70;nan
10392;BME280;5242;49.244;6.774;2023-04-08T22:43:50;100298.53;;;7.88;nan
10392;BME280;5242;49.244;6.774;2023-04-08T22:51:42;100300.91;;;7.89;nan
10392;BME280;5242;49.244;6.774;2023-04-08T22:59:33;100290.88;;;7.98;nan
10392;BME280;5242;49.244;6.774;2023-04-08T23:07:25;100280.81;;;8.07;nan
10392;BME280;5242;49.244;6.774;2023-04-08T23:15:17;100279.56;;;8.14;nan
10392;BME280;5242;49.244;6.774;2023-04-08T23:23:09;100274.16;;;8.14;nan
10392;BME280;5242;49.244;6.774;2023-04-08T23:31:02;100289.44;;;8.10;nan
10392;BME280;5242;49.244;6.774;2023-04-08T23:38:55;100290.88;;;7.98;nan
10392;BME280;5242;49.244;6.774;2023-04-08T23:46:47;100293.13;;;7.88;nan
10392;BME280;5242;49.244;6.774;2023-04-08T23:54:38;100292.13;;;7.75;nan
